Time;durP1;ratioP1;P1;durP2;ratioP2;P2;SDS_P1;SDS_P2;PMS_P1;PMS_P2;Temp;Humidity;BMP_temperature;BMP_pressure;BME280_temperature;BME280_humidity;BME280_pressure;Samples;Min_cycle;Max_cycle;Signal;HPM_P1;HPM_P2
2023/12/13 00:01:21;;;;;;;132.35;61.92;;;;;;;;;;6082034;29;20157;-79
2023/12/13 00:04:23;;;;;;;57.13;29.13;;;;;;;;;;6084009;29;20040;-81
2023/12/13 00:07:25;;;;;;;45.75;24.80;;;;;;;;;;6086782;29;20263;-78
2023/12/13 00:10:26;;;;;;;47.22;23.98;;;;;;;;;;6081716;29;20056;-79
2023/12/13 00:13:29;;;;;;;49.90;24.50;;;;;;;;;;6084172;29;20053;-78
2023/12/13 00:16:31;;;;;;;52.05;25.27;;;;;;;;;;6089445;29;20057;-77
2023/12/13 00:19:33;;;;;;;51.08;23.77;;;;;;;;;;6083531;29;20048;-78
2023/12/13 00:22:34;;;;;;;49.13;24.80;;;;;;;;;;6085532;29;20064;-77
2023/12/13 00:25:36;;;;;;;54.35;27.05;;;;;;;;;;6085369;29;20052;-77
2023/12/13 00:28:39;;;;;;;57.53;30.38;;;;;;;;;;6085852;29;20363;-77
2023/12/13 00:31:41;;;;;;;59.67;29.30;;;;;;;;;;6087155;29;20053;-78
2023/12/13 00:34:42;;;;;;;59.00;29.90;;;;;;;;;;6085927;29;20347;-77
2023/12/13 00:37:44;;;;;;;56.58;28.33;;;;;;;;;;6082289;29;20085;-78
2023/12/13 00:40:46;;;;;;;57.10;29.67;;;;;;;;;;6084206;29;20052;-78
2023/12/13 00:43:49;;;;;;;53.20;28.48;;;;;;;;;;6083857;29;20104;-78
2023/12/13 00:46:51;;;;;;;52.63;29.02;;;;;;;;;;6084866;29;20059;-77
2023/12/13 00:49:54;;;;;;;51.95;29.10;;;;;;;;;;6084662;29;20068;-78
2023/12/13 00:52:55;;;;;;;55.42;29.55;;;;;;;;;;6079652;29;20052;-78
2023/12/13 00:55:57;;;;;;;53.95;29.48;;;;;;;;;;6078786;29;20056;-78
2023/12/13 00:59:00;;;;;;;49.88;27.90;;;;;;;;;;6082051;29;20068;-78
2023/12/13 01:02:03;;;;;;;59.13;29.35;;;;;;;;;;6081441;29;20331;-78
2023/12/13 01:05:06;;;;;;;62.10;30.27;;;;;;;;;;6079778;29;20080;-78
2023/12/13 01:08:08;;;;;;;62.90;31.83;;;;;;;;;;6080733;29;20065;-77
2023/12/13 01:11:10;;;;;;;60.65;31.13;;;;;;;;;;6080735;29;20720;-78
2023/12/13 01:14:13;;;;;;;62.83;29.58;;;;;;;;;;6083768;29;20057;-78
2023/12/13 01:17:15;;;;;;;62.65;30.08;;;;;;;;;;6082344;29;20139;-78
2023/12/13 01:20:17;;;;;;;56.30;28.55;;;;;;;;;;6083737;29;20048;-77
2023/12/13 01:23:18;;;;;;;55.92;28.70;;;;;;;;;;6081398;29;20366;-78
2023/12/13 01:26:20;;;;;;;59.85;30.58;;;;;;;;;;6080553;29;20065;-83
2023/12/13 01:29:24;;;;;;;51.05;29.35;;;;;;;;;;6085644;29;20059;-80
2023/12/13 01:32:26;;;;;;;55.15;30.73;;;;;;;;;;6082980;29;20164;-83
2023/12/13 01:35:27;;;;;;;53.75;28.88;;;;;;;;;;6080922;29;20072;-83
2023/12/13 01:38:29;;;;;;;54.28;28.10;;;;;;;;;;6086059;29;20082;-83
2023/12/13 01:41:31;;;;;;;54.28;27.42;;;;;;;;;;6082862;29;20255;-83
2023/12/13 01:44:34;;;;;;;53.03;29.17;;;;;;;;;;6083597;29;20072;-82
2023/12/13 01:47:36;;;;;;;52.25;26.88;;;;;;;;;;6082188;29;20347;-84
2023/12/13 01:50:37;;;;;;;51.40;26.88;;;;;;;;;;6079911;29;20060;-84
2023/12/13 01:53:40;;;;;;;49.60;27.65;;;;;;;;;;6080385;29;20059;-83
2023/12/13 01:56:44;;;;;;;48.75;27.48;;;;;;;;;;6080508;29;20057;-83
2023/12/13 01:59:47;;;;;;;54.08;27.90;;;;;;;;;;6081087;29;20360;-84
2023/12/13 02:02:49;;;;;;;53.28;27.58;;;;;;;;;;6081621;29;20052;-84
2023/12/13 02:05:51;;;;;;;53.13;27.55;;;;;;;;;;6078920;29;20281;-81
2023/12/13 02:08:53;;;;;;;49.72;25.85;;;;;;;;;;6081412;29;20063;-81
2023/12/13 02:11:55;;;;;;;46.92;25.45;;;;;;;;;;6078845;29;20056;-81
2023/12/13 02:14:58;;;;;;;52.75;26.20;;;;;;;;;;6079930;29;20358;-83
2023/12/13 02:18:00;;;;;;;54.00;26.40;;;;;;;;;;6082713;29;20055;-83
2023/12/13 02:21:02;;;;;;;48.28;24.55;;;;;;;;;;6079696;29;20102;-82
2023/12/13 02:24:06;;;;;;;53.33;26.00;;;;;;;;;;6081878;29;20078;-83
2023/12/13 02:27:08;;;;;;;53.05;25.55;;;;;;;;;;6085097;29;20049;-84
2023/12/13 02:30:10;;;;;;;51.53;25.40;;;;;;;;;;6081297;29;20059;-83
2023/12/13 02:33:12;;;;;;;53.10;25.73;;;;;;;;;;6079073;29;20340;-83
2023/12/13 02:36:13;;;;;;;47.70;24.05;;;;;;;;;;6083788;29;20063;-84
2023/12/13 02:39:16;;;;;;;44.28;23.75;;;;;;;;;;6083641;29;20048;-86
2023/12/13 02:42:19;;;;;;;48.42;24.00;;;;;;;;;;6080917;29;20055;-84
2023/12/13 02:45:21;;;;;;;48.78;24.30;;;;;;;;;;6083487;29;20056;-83
2023/12/13 02:48:22;;;;;;;52.05;24.52;;;;;;;;;;6084853;29;20099;-84
2023/12/13 02:51:24;;;;;;;47.55;23.40;;;;;;;;;;6084354;29;20068;-83
2023/12/13 02:54:27;;;;;;;56.70;24.90;;;;;;;;;;6083912;29;20131;-84
2023/12/13 02:57:29;;;;;;;56.88;24.17;;;;;;;;;;6082234;29;20068;-83
2023/12/13 03:00:30;;;;;;;57.03;25.55;;;;;;;;;;6087090;29;20064;-83
2023/12/13 03:03:32;;;;;;;60.25;23.70;;;;;;;;;;6084857;29;20055;-83
2023/12/13 03:06:34;;;;;;;53.50;24.55;;;;;;;;;;6085695;29;20061;-83
2023/12/13 03:09:37;;;;;;;54.28;22.35;;;;;;;;;;6080740;29;20052;-84
2023/12/13 03:12:40;;;;;;;53.58;24.85;;;;;;;;;;6081203;29;20053;-84
2023/12/13 03:15:41;;;;;;;53.90;24.10;;;;;;;;;;6086692;29;20048;-82
2023/12/13 03:18:43;;;;;;;49.85;23.35;;;;;;;;;;6083148;29;20263;-84
2023/12/13 03:21:45;;;;;;;55.42;25.10;;;;;;;;;;6083367;29;20057;-83
2023/12/13 03:24:48;;;;;;;49.47;22.70;;;;;;;;;;6087007;29;20061;-83
2023/12/13 03:27:51;;;;;;;55.30;23.40;;;;;;;;;;6083367;29;20216;-83
2023/12/13 03:30:52;;;;;;;49.55;23.38;;;;;;;;;;6085256;29;20088;-83
2023/12/13 03:33:55;;;;;;;57.65;25.17;;;;;;;;;;6083881;29;20064;-85
2023/12/13 03:36:56;;;;;;;54.67;22.73;;;;;;;;;;6089542;29;20239;-83
2023/12/13 03:39:59;;;;;;;52.85;24.83;;;;;;;;;;6086143;29;20080;-84
2023/12/13 03:43:01;;;;;;;53.88;23.42;;;;;;;;;;6091588;29;20460;-82
2023/12/13 03:46:03;;;;;;;55.22;23.48;;;;;;;;;;6089350;29;20083;-82
2023/12/13 03:49:05;;;;;;;49.33;22.50;;;;;;;;;;6087222;29;20083;-82
2023/12/13 03:52:08;;;;;;;49.10;22.02;;;;;;;;;;6084670;29;20156;-82
2023/12/13 03:55:12;;;;;;;45.50;22.38;;;;;;;;;;6083357;29;20064;-83
2023/12/13 03:58:14;;;;;;;49.25;22.25;;;;;;;;;;6082882;29;20057;-82
2023/12/13 04:01:16;;;;;;;48.50;22.50;;;;;;;;;;6084722;29;20079;-84
2023/12/13 04:04:17;;;;;;;55.20;24.00;;;;;;;;;;6083087;29;20345;-84
2023/12/13 04:07:19;;;;;;;49.00;22.98;;;;;;;;;;6080669;29;20339;-82
2023/12/13 04:10:22;;;;;;;50.10;22.58;;;;;;;;;;6080582;29;20351;-82
2023/12/13 04:13:24;;;;;;;51.70;24.45;;;;;;;;;;6077400;29;20368;-83
2023/12/13 04:16:26;;;;;;;53.22;24.58;;;;;;;;;;6082304;29;20056;-82
2023/12/13 04:19:27;;;;;;;60.70;25.17;;;;;;;;;;6082131;29;20048;-82
2023/12/13 04:22:29;;;;;;;50.50;22.88;;;;;;;;;;6079906;29;20061;-83
2023/12/13 04:25:32;;;;;;;53.15;23.80;;;;;;;;;;6082052;29;20053;-83
2023/12/13 04:28:34;;;;;;;55.17;23.45;;;;;;;;;;6087047;29;20056;-82
2023/12/13 04:31:36;;;;;;;45.15;22.08;;;;;;;;;;6081225;29;20056;-83
2023/12/13 04:34:37;;;;;;;52.17;23.27;;;;;;;;;;6083451;29;20060;-82
2023/12/13 04:37:39;;;;;;;56.22;24.45;;;;;;;;;;6079632;29;20060;-83
2023/12/13 04:40:42;;;;;;;46.17;21.17;;;;;;;;;;6083513;29;20400;-82
2023/12/13 04:43:44;;;;;;;55.90;23.45;;;;;;;;;;6089693;29;20060;-83
2023/12/13 04:46:45;;;;;;;56.45;22.73;;;;;;;;;;6083606;29;20225;-83
2023/12/13 04:49:47;;;;;;;52.58;22.92;;;;;;;;;;6088244;29;20067;-82
2023/12/13 04:52:49;;;;;;;53.50;23.30;;;;;;;;;;6084943;29;20123;-82
2023/12/13 04:55:52;;;;;;;63.47;23.70;;;;;;;;;;6088527;29;20076;-84
2023/12/13 04:58:54;;;;;;;58.88;23.02;;;;;;;;;;6083541;29;20052;-82
2023/12/13 05:01:56;;;;;;;63.38;24.52;;;;;;;;;;6082280;29;20127;-84
2023/12/13 05:04:58;;;;;;;60.35;23.55;;;;;;;;;;6082021;29;20401;-85
2023/12/13 05:08:00;;;;;;;55.75;23.15;;;;;;;;;;6080139;29;20162;-84
2023/12/13 05:11:03;;;;;;;62.10;22.35;;;;;;;;;;6080681;29;21060;-84
2023/12/13 05:14:04;;;;;;;61.80;23.98;;;;;;;;;;6078741;29;20240;-83
2023/12/13 05:17:06;;;;;;;68.18;23.15;;;;;;;;;;6078650;29;20371;-84
2023/12/13 05:20:10;;;;;;;68.50;22.42;;;;;;;;;;6082159;29;20060;-84
2023/12/13 05:23:11;;;;;;;69.50;22.17;;;;;;;;;;6080919;29;20233;-85
2023/12/13 05:26:14;;;;;;;67.88;22.90;;;;;;;;;;6082395;29;20391;-85
2023/12/13 05:29:16;;;;;;;59.60;20.45;;;;;;;;;;6084199;29;20054;-85
2023/12/13 05:32:18;;;;;;;59.20;20.08;;;;;;;;;;6082592;29;20057;-83
2023/12/13 05:35:20;;;;;;;58.10;19.73;;;;;;;;;;6086056;29;20053;-83
2023/12/13 05:38:22;;;;;;;54.28;18.17;;;;;;;;;;6078783;29;20277;-83
2023/12/13 05:41:25;;;;;;;48.08;18.23;;;;;;;;;;6079403;29;20060;-84
2023/12/13 05:44:27;;;;;;;50.05;17.20;;;;;;;;;;6084524;29;20059;-83
2023/12/13 05:47:29;;;;;;;46.13;17.55;;;;;;;;;;6084729;29;20056;-83
2023/12/13 05:50:30;;;;;;;47.17;17.90;;;;;;;;;;6081252;29;20068;-83
2023/12/13 05:53:32;;;;;;;47.83;17.15;;;;;;;;;;6082443;29;20056;-83
2023/12/13 05:56:35;;;;;;;36.40;16.65;;;;;;;;;;6082218;29;20419;-84
2023/12/13 05:59:37;;;;;;;39.67;15.15;;;;;;;;;;6085740;29;20050;-83
2023/12/13 06:02:38;;;;;;;34.78;13.55;;;;;;;;;;6082852;29;20064;-83
2023/12/13 06:05:41;;;;;;;32.10;14.45;;;;;;;;;;6081229;29;20251;-82
2023/12/13 06:08:43;;;;;;;32.33;13.73;;;;;;;;;;6081449;29;20055;-84
2023/12/13 06:11:46;;;;;;;35.60;15.43;;;;;;;;;;6085562;29;20391;-83
2023/12/13 06:14:48;;;;;;;32.17;14.55;;;;;;;;;;6074921;29;20347;-78
2023/12/13 06:17:49;;;;;;;32.35;15.15;;;;;;;;;;6078950;29;20063;-77
2023/12/13 06:20:52;;;;;;;34.50;14.82;;;;;;;;;;6080656;29;20260;-77
2023/12/13 06:23:53;;;;;;;39.88;16.38;;;;;;;;;;6079757;29;20064;-78
2023/12/13 06:26:57;;;;;;;35.70;15.85;;;;;;;;;;6082154;29;20060;-77
2023/12/13 06:29:59;;;;;;;38.55;14.23;;;;;;;;;;6085457;29;20056;-77
2023/12/13 06:33:00;;;;;;;38.20;14.45;;;;;;;;;;6084857;29;20059;-78
2023/12/13 06:36:02;;;;;;;33.88;13.60;;;;;;;;;;6080897;29;20057;-78
2023/12/13 06:39:04;;;;;;;37.92;14.65;;;;;;;;;;6080370;29;20063;-77
2023/12/13 06:42:08;;;;;;;37.60;14.60;;;;;;;;;;6081593;29;20053;-77
2023/12/13 06:45:10;;;;;;;33.17;13.85;;;;;;;;;;6076011;29;20124;-78
2023/12/13 06:48:12;;;;;;;33.00;14.35;;;;;;;;;;6081811;29;20064;-77
2023/12/13 06:51:14;;;;;;;36.85;15.02;;;;;;;;;;6085148;29;20076;-78
2023/12/13 06:54:15;;;;;;;39.45;15.80;;;;;;;;;;6084143;29;20053;-77
2023/12/13 06:57:19;;;;;;;36.83;16.08;;;;;;;;;;6078847;29;20065;-78
2023/12/13 07:00:23;;;;;;;35.25;14.48;;;;;;;;;;6079430;29;20052;-77
2023/12/13 07:03:24;;;;;;;33.45;13.68;;;;;;;;;;6079480;29;20297;-77
2023/12/13 07:06:26;;;;;;;33.60;14.77;;;;;;;;;;6079685;29;20356;-78
2023/12/13 07:09:29;;;;;;;30.35;14.20;;;;;;;;;;6080750;29;20064;-78
2023/12/13 07:12:32;;;;;;;40.05;15.95;;;;;;;;;;6079585;29;20075;-77
2023/12/13 07:15:33;;;;;;;30.13;14.32;;;;;;;;;;6077147;29;20244;-77
2023/12/13 07:18:35;;;;;;;32.45;14.98;;;;;;;;;;6080381;29;20319;-77
2023/12/13 07:21:37;;;;;;;38.08;15.75;;;;;;;;;;6076660;29;20059;-77
2023/12/13 07:24:39;;;;;;;34.88;15.38;;;;;;;;;;6077212;29;20144;-77
2023/12/13 07:27:42;;;;;;;36.08;16.77;;;;;;;;;;6076015;29;20127;-83
2023/12/13 07:30:44;;;;;;;37.03;17.67;;;;;;;;;;6079821;29;20359;-84
2023/12/13 07:33:46;;;;;;;46.10;19.63;;;;;;;;;;6076044;29;20056;-82
2023/12/13 07:36:49;;;;;;;42.33;19.33;;;;;;;;;;6080627;29;20086;-81
2023/12/13 07:39:50;;;;;;;37.53;18.65;;;;;;;;;;6080901;29;20113;-83
2023/12/13 07:42:53;;;;;;;39.30;18.00;;;;;;;;;;6078470;29;20056;-81
2023/12/13 07:45:55;;;;;;;42.95;19.25;;;;;;;;;;6080896;29;20056;-84
2023/12/13 07:49:03;;;;;;;44.10;18.63;;;;;;;;;;6085623;29;20112;-83
2023/12/13 07:52:06;;;;;;;46.42;19.10;;;;;;;;;;6083828;29;20064;-85
2023/12/13 07:55:08;;;;;;;40.90;18.57;;;;;;;;;;6089931;29;20061;-83
2023/12/13 07:58:11;;;;;;;46.50;19.35;;;;;;;;;;6084618;29;20052;-83
2023/12/13 08:01:15;;;;;;;47.50;19.80;;;;;;;;;;6082175;29;20052;-84
2023/12/13 08:04:17;;;;;;;48.47;20.42;;;;;;;;;;6083500;29;20057;-82
2023/12/13 08:07:19;;;;;;;48.80;20.45;;;;;;;;;;6086189;29;20056;-82
2023/12/13 08:10:20;;;;;;;42.42;19.60;;;;;;;;;;6083692;29;20273;-83
2023/12/13 08:13:23;;;;;;;53.08;22.95;;;;;;;;;;6086349;29;20067;-82
2023/12/13 08:16:25;;;;;;;54.25;20.67;;;;;;;;;;6083029;29;20332;-82
2023/12/13 08:19:27;;;;;;;54.20;20.65;;;;;;;;;;6081229;29;20086;-82
2023/12/13 08:22:28;;;;;;;55.55;21.40;;;;;;;;;;6078109;29;20067;-83
2023/12/13 08:25:30;;;;;;;50.83;20.45;;;;;;;;;;6081230;29;20264;-82
2023/12/13 08:28:33;;;;;;;54.05;20.13;;;;;;;;;;6083884;29;20065;-82
2023/12/13 08:31:35;;;;;;;53.45;20.40;;;;;;;;;;6080359;29;20069;-83
2023/12/13 08:34:37;;;;;;;51.83;20.23;;;;;;;;;;6084130;29;20122;-83
2023/12/13 08:37:38;;;;;;;51.97;20.15;;;;;;;;;;6086263;29;20252;-78
2023/12/13 08:40:40;;;;;;;54.25;20.77;;;;;;;;;;6085026;29;20060;-79
2023/12/13 08:43:43;;;;;;;49.38;20.83;;;;;;;;;;6083636;29;20068;-80
2023/12/13 08:46:47;;;;;;;54.17;21.55;;;;;;;;;;6081462;29;20255;-78
2023/12/13 08:49:48;;;;;;;51.95;20.92;;;;;;;;;;6081068;29;20062;-77
2023/12/13 08:52:50;;;;;;;55.28;20.27;;;;;;;;;;6089030;29;20048;-78
2023/12/13 08:55:52;;;;;;;48.15;21.42;;;;;;;;;;6081574;29;20061;-79
2023/12/13 08:58:55;;;;;;;48.35;20.83;;;;;;;;;;6085976;29;20056;-79
2023/12/13 09:01:57;;;;;;;53.03;21.92;;;;;;;;;;6083902;29;20132;-80
2023/12/13 09:04:58;;;;;;;51.85;21.42;;;;;;;;;;6083243;29;20052;-79
2023/12/13 09:08:00;;;;;;;47.97;20.95;;;;;;;;;;6079706;29;20518;-78
2023/12/13 09:11:02;;;;;;;55.25;20.95;;;;;;;;;;6083084;29;20072;-78
2023/12/13 09:14:05;;;;;;;54.13;21.75;;;;;;;;;;6081346;29;20049;-78
2023/12/13 09:17:07;;;;;;;52.42;20.77;;;;;;;;;;6083192;29;20348;-79
2023/12/13 09:20:14;;;;;;;58.30;22.88;;;;;;;;;;6084707;29;20295;-79
2023/12/13 09:23:21;;;;;;;55.53;21.13;;;;;;;;;;6078644;29;20083;-77
2023/12/13 09:26:23;;;;;;;55.78;22.33;;;;;;;;;;6077846;29;20057;-78
2023/12/13 09:29:26;;;;;;;54.13;22.02;;;;;;;;;;6079604;29;20068;-78
2023/12/13 09:32:27;;;;;;;58.55;22.80;;;;;;;;;;6082176;29;20063;-78
2023/12/13 09:35:29;;;;;;;55.53;22.70;;;;;;;;;;6084863;29;20067;-79
2023/12/13 09:38:31;;;;;;;52.90;20.83;;;;;;;;;;6081715;29;20057;-79
2023/12/13 09:41:39;;;;;;;50.03;21.45;;;;;;;;;;6079287;29;20185;-78
2023/12/13 09:44:42;;;;;;;57.85;22.55;;;;;;;;;;6077494;29;20347;-78
2023/12/13 09:47:45;;;;;;;56.05;23.13;;;;;;;;;;6083884;29;20056;-82
2023/12/13 09:50:47;;;;;;;53.33;22.88;;;;;;;;;;6084354;29;20375;-83
2023/12/13 09:53:49;;;;;;;57.70;23.08;;;;;;;;;;6084219;29;20060;-83
2023/12/13 09:56:51;;;;;;;47.65;19.73;;;;;;;;;;6084153;29;20060;-83
2023/12/13 09:59:54;;;;;;;56.00;22.58;;;;;;;;;;6083999;29;20052;-83
2023/12/13 10:02:56;;;;;;;58.10;22.13;;;;;;;;;;6082488;29;20052;-83
2023/12/13 10:05:59;;;;;;;55.40;23.08;;;;;;;;;;6086052;29;20063;-82
2023/12/13 10:09:01;;;;;;;53.50;22.92;;;;;;;;;;6081274;29;20040;-82
2023/12/13 10:12:07;;;;;;;53.70;22.42;;;;;;;;;;6079699;29;20374;-83
2023/12/13 10:15:11;;;;;;;61.05;23.05;;;;;;;;;;6083365;29;20061;-82
2023/12/13 10:18:12;;;;;;;55.60;22.83;;;;;;;;;;6076572;29;20293;-81
2023/12/13 10:21:15;;;;;;;51.20;22.25;;;;;;;;;;6080080;29;20064;-83
2023/12/13 10:24:16;;;;;;;55.58;23.05;;;;;;;;;;6079985;29;20058;-83
2023/12/13 10:27:19;;;;;;;51.42;22.00;;;;;;;;;;6076349;29;20064;-83
2023/12/13 10:30:22;;;;;;;51.78;22.23;;;;;;;;;;6077262;29;20052;-82
2023/12/13 10:33:24;;;;;;;56.33;23.75;;;;;;;;;;6080151;29;20203;-82
2023/12/13 10:36:26;;;;;;;60.50;22.90;;;;;;;;;;6079004;29;20110;-82
2023/12/13 10:39:29;;;;;;;57.05;23.05;;;;;;;;;;6080819;29;20061;-82
2023/12/13 10:42:32;;;;;;;61.00;24.23;;;;;;;;;;6078768;29;20136;-82
2023/12/13 10:45:36;;;;;;;56.33;23.10;;;;;;;;;;6081472;29;20044;-82
2023/12/13 10:48:38;;;;;;;57.63;24.47;;;;;;;;;;6084204;29;20053;-82
2023/12/13 10:51:40;;;;;;;57.53;22.90;;;;;;;;;;6079383;29;20113;-82
2023/12/13 10:54:41;;;;;;;52.83;23.48;;;;;;;;;;6080856;29;20071;-83
2023/12/13 10:57:43;;;;;;;53.53;24.02;;;;;;;;;;6082478;29;20067;-79
2023/12/13 11:00:47;;;;;;;56.75;23.55;;;;;;;;;;6085287;29;20061;-79
2023/12/13 11:03:52;;;;;;;55.83;24.30;;;;;;;;;;6081655;29;20373;-79
2023/12/13 11:06:54;;;;;;;57.10;23.98;;;;;;;;;;6081024;29;20225;-82
2023/12/13 11:09:56;;;;;;;55.72;23.98;;;;;;;;;;6083129;29;20053;-82
2023/12/13 11:12:59;;;;;;;47.85;22.65;;;;;;;;;;6080695;29;20386;-82
2023/12/13 11:16:02;;;;;;;55.25;23.45;;;;;;;;;;6077045;29;20055;-82
2023/12/13 11:19:04;;;;;;;45.63;21.77;;;;;;;;;;6079494;29;20248;-82
2023/12/13 11:22:07;;;;;;;42.35;20.23;;;;;;;;;;6083217;29;20120;-82
2023/12/13 11:25:10;;;;;;;43.08;19.58;;;;;;;;;;6083658;29;20404;-82
2023/12/13 11:28:20;;;;;;;42.00;20.58;;;;;;;;;;6084373;29;20051;-80
2023/12/13 11:31:24;;;;;;;42.15;21.02;;;;;;;;;;6082024;29;20272;-81
2023/12/13 11:34:33;;;;;;;48.60;22.50;;;;;;;;;;6081102;29;20248;-82
2023/12/13 11:37:36;;;;;;;53.28;22.60;;;;;;;;;;6082193;29;20356;-82
2023/12/13 11:40:37;;;;;;;45.65;21.92;;;;;;;;;;6086688;29;20056;-82
2023/12/13 11:43:40;;;;;;;58.15;23.08;;;;;;;;;;6082750;29;20060;-81
2023/12/13 11:46:43;;;;;;;49.50;23.15;;;;;;;;;;6087301;29;20049;-83
2023/12/13 11:49:45;;;;;;;52.38;24.17;;;;;;;;;;6086495;29;20379;-83
2023/12/13 11:52:47;;;;;;;46.25;22.77;;;;;;;;;;6088804;29;20057;-82
2023/12/13 11:55:48;;;;;;;43.42;21.58;;;;;;;;;;6083882;29;20065;-82
2023/12/13 11:58:50;;;;;;;44.15;21.77;;;;;;;;;;6083543;29;20103;-83
2023/12/13 12:01:53;;;;;;;45.60;21.75;;;;;;;;;;6088779;29;20104;-83
2023/12/13 12:04:55;;;;;;;47.13;21.85;;;;;;;;;;6088687;29;20320;-82
2023/12/13 12:07:58;;;;;;;48.50;22.80;;;;;;;;;;6081005;29;20059;-84
2023/12/13 12:11:00;;;;;;;47.60;23.27;;;;;;;;;;6085523;29;20052;-84
2023/12/13 12:14:01;;;;;;;53.20;23.27;;;;;;;;;;6089832;29;20123;-82
2023/12/13 12:17:05;;;;;;;49.45;23.08;;;;;;;;;;6083032;29;20064;-83
2023/12/13 12:20:08;;;;;;;53.85;24.55;;;;;;;;;;6081865;29;20063;-82
2023/12/13 12:23:10;;;;;;;52.30;24.35;;;;;;;;;;6084739;29;20068;-84
2023/12/13 12:26:13;;;;;;;54.67;23.70;;;;;;;;;;6084043;29;20119;-83
2023/12/13 12:29:15;;;;;;;50.38;23.90;;;;;;;;;;6082612;29;20056;-84
2023/12/13 12:32:18;;;;;;;50.83;22.77;;;;;;;;;;6078032;29;20370;-83
2023/12/13 12:35:20;;;;;;;53.03;23.58;;;;;;;;;;6077649;29;20515;-84
2023/12/13 12:38:21;;;;;;;50.97;22.77;;;;;;;;;;6083134;29;20060;-83
2023/12/13 12:41:24;;;;;;;54.42;25.00;;;;;;;;;;6085519;29;20251;-82
2023/12/13 12:44:26;;;;;;;58.35;26.55;;;;;;;;;;6086981;29;20045;-82
2023/12/13 12:47:29;;;;;;;53.88;25.20;;;;;;;;;;6087073;29;20328;-82
2023/12/13 12:50:30;;;;;;;49.97;23.05;;;;;;;;;;6087075;29;20063;-83
2023/12/13 12:53:32;;;;;;;51.83;25.08;;;;;;;;;;6087371;29;20690;-82
2023/12/13 12:56:34;;;;;;;51.42;23.63;;;;;;;;;;6083635;29;20096;-83
2023/12/13 12:59:36;;;;;;;51.83;24.38;;;;;;;;;;6084993;29;20060;-82
2023/12/13 13:02:39;;;;;;;49.25;23.73;;;;;;;;;;6088677;29;20048;-82
2023/12/13 13:05:42;;;;;;;51.60;23.73;;;;;;;;;;6087550;29;20320;-84
2023/12/13 13:08:44;;;;;;;54.95;24.00;;;;;;;;;;6085825;29;20049;-83
2023/12/13 13:11:45;;;;;;;59.90;25.60;;;;;;;;;;6080759;29;20246;-84
2023/12/13 13:14:47;;;;;;;65.63;28.10;;;;;;;;;;6084723;29;20068;-84
2023/12/13 13:17:50;;;;;;;70.25;28.77;;;;;;;;;;6080661;29;20048;-85
2023/12/13 13:20:54;;;;;;;70.60;28.70;;;;;;;;;;6081996;29;20048;-82
2023/12/13 13:23:56;;;;;;;73.97;29.48;;;;;;;;;;6080133;29;20237;-83
2023/12/13 13:26:58;;;;;;;75.10;29.35;;;;;;;;;;6083135;29;20060;-76
2023/12/13 13:29:59;;;;;;;72.97;30.45;;;;;;;;;;6081531;29;20458;-77
2023/12/13 13:33:03;;;;;;;63.67;28.67;;;;;;;;;;6080699;29;20083;-78
2023/12/13 13:36:05;;;;;;;72.20;29.67;;;;;;;;;;6075305;29;20053;-78
2023/12/13 13:39:09;;;;;;;75.53;29.33;;;;;;;;;;6076236;29;20104;-78
2023/12/13 13:42:11;;;;;;;82.85;29.13;;;;;;;;;;6079036;28;20124;-77
2023/12/13 13:45:12;;;;;;;73.75;30.23;;;;;;;;;;6082235;29;20061;-77
2023/12/13 13:48:16;;;;;;;95.57;40.58;;;;;;;;;;6084347;29;20358;-77
2023/12/13 13:51:18;;;;;;;71.10;30.48;;;;;;;;;;6083230;29;20577;-78
2023/12/13 13:54:20;;;;;;;106.43;42.78;;;;;;;;;;6083435;29;20145;-78
2023/12/13 13:57:21;;;;;;;99.43;45.13;;;;;;;;;;6083301;29;20087;-76
2023/12/13 14:00:23;;;;;;;103.70;47.97;;;;;;;;;;6084887;29;20049;-78
2023/12/13 14:03:26;;;;;;;78.90;34.10;;;;;;;;;;6084532;29;20091;-78
2023/12/13 14:06:28;;;;;;;58.53;27.08;;;;;;;;;;6080572;29;20059;-77
2023/12/13 14:09:31;;;;;;;63.70;28.88;;;;;;;;;;6083445;29;20096;-78
2023/12/13 14:12:33;;;;;;;62.78;27.45;;;;;;;;;;6086719;29;20063;-78
2023/12/13 14:15:35;;;;;;;58.53;26.75;;;;;;;;;;6089332;29;20243;-77
2023/12/13 14:18:38;;;;;;;62.33;30.02;;;;;;;;;;6084276;29;20515;-77
2023/12/13 14:21:39;;;;;;;66.40;28.85;;;;;;;;;;6083002;29;20061;-77
2023/12/13 14:24:41;;;;;;;57.10;26.10;;;;;;;;;;6082897;29;20060;-77
2023/12/13 14:27:43;;;;;;;57.72;27.88;;;;;;;;;;6080585;29;20113;-77
2023/12/13 14:30:44;;;;;;;59.97;26.13;;;;;;;;;;6079062;29;20601;-77
2023/12/13 14:33:47;;;;;;;65.80;27.17;;;;;;;;;;6087814;29;20060;-77
2023/12/13 14:36:49;;;;;;;57.78;28.00;;;;;;;;;;6080190;29;20055;-83
2023/12/13 14:39:51;;;;;;;60.65;28.50;;;;;;;;;;6075202;29;20056;-84
2023/12/13 14:42:53;;;;;;;66.15;28.27;;;;;;;;;;6081070;29;20272;-84
2023/12/13 14:45:55;;;;;;;69.05;28.52;;;;;;;;;;6079222;29;20055;-78
2023/12/13 14:48:58;;;;;;;71.10;30.70;;;;;;;;;;6080985;29;20048;-77
2023/12/13 14:52:00;;;;;;;68.63;28.40;;;;;;;;;;6083759;29;20067;-77
2023/12/13 14:55:04;;;;;;;63.92;29.45;;;;;;;;;;6088892;29;20060;-76
2023/12/13 14:58:06;;;;;;;68.82;30.48;;;;;;;;;;6087264;29;20288;-76
2023/12/13 15:01:07;;;;;;;69.13;28.60;;;;;;;;;;6086805;29;20286;-76
2023/12/13 15:04:10;;;;;;;63.95;27.75;;;;;;;;;;6087393;29;20067;-77
2023/12/13 15:07:13;;;;;;;64.68;27.83;;;;;;;;;;6083461;29;20340;-77
2023/12/13 15:10:15;;;;;;;61.72;27.35;;;;;;;;;;6083098;29;20064;-77
2023/12/13 15:13:17;;;;;;;60.35;27.25;;;;;;;;;;6089339;29;20067;-78
2023/12/13 15:16:19;;;;;;;66.80;28.10;;;;;;;;;;6082615;29;20060;-77
2023/12/13 15:19:22;;;;;;;68.55;29.27;;;;;;;;;;6087127;29;20075;-77
2023/12/13 15:22:24;;;;;;;71.13;28.52;;;;;;;;;;6087051;29;20067;-77
2023/12/13 15:25:26;;;;;;;62.60;29.15;;;;;;;;;;6083609;29;20056;-78
2023/12/13 15:28:27;;;;;;;69.70;29.75;;;;;;;;;;6084751;29;20383;-79
2023/12/13 15:31:29;;;;;;;68.40;30.27;;;;;;;;;;6079710;29;20348;-77
2023/12/13 15:34:32;;;;;;;72.72;30.25;;;;;;;;;;6086813;29;20108;-77
2023/12/13 15:37:34;;;;;;;71.53;29.80;;;;;;;;;;6086160;29;20057;-77
2023/12/13 15:40:35;;;;;;;65.28;29.25;;;;;;;;;;6080735;29;20198;-77
2023/12/13 15:43:37;;;;;;;58.63;27.83;;;;;;;;;;6080095;29;20066;-77
2023/12/13 15:46:39;;;;;;;65.85;29.48;;;;;;;;;;6082652;29;20056;-77
2023/12/13 15:49:42;;;;;;;68.18;29.17;;;;;;;;;;6082400;29;20072;-77
2023/12/13 15:52:44;;;;;;;65.47;27.42;;;;;;;;;;6082461;29;20582;-77
2023/12/13 15:55:46;;;;;;;58.00;26.70;;;;;;;;;;6086837;29;20048;-83
2023/12/13 15:58:47;;;;;;;60.13;27.08;;;;;;;;;;6085558;29;20059;-83
2023/12/13 16:01:49;;;;;;;61.05;26.92;;;;;;;;;;6084935;29;20057;-83
2023/12/13 16:04:53;;;;;;;64.60;27.42;;;;;;;;;;6083677;29;20060;-82
2023/12/13 16:07:54;;;;;;;116.67;48.17;;;;;;;;;;6088281;29;20045;-85
2023/12/13 16:10:56;;;;;;;83.60;37.50;;;;;;;;;;6087737;29;20452;-83
2023/12/13 16:13:58;;;;;;;67.00;31.67;;;;;;;;;;6086948;29;20059;-84
2023/12/13 16:17:00;;;;;;;83.15;42.78;;;;;;;;;;6087620;29;20096;-85
2023/12/13 16:20:04;;;;;;;66.32;28.90;;;;;;;;;;6082500;29;20454;-84
2023/12/13 16:23:05;;;;;;;62.13;27.23;;;;;;;;;;6084243;29;20105;-82
2023/12/13 16:26:07;;;;;;;62.88;28.08;;;;;;;;;;6085310;29;20120;-82
2023/12/13 16:29:09;;;;;;;60.47;26.67;;;;;;;;;;6087846;29;20386;-84
2023/12/13 16:32:11;;;;;;;62.60;27.35;;;;;;;;;;6081636;29;20052;-84
2023/12/13 16:35:15;;;;;;;66.95;28.50;;;;;;;;;;6083221;29;20080;-83
2023/12/13 16:38:17;;;;;;;63.40;27.17;;;;;;;;;;6084368;29;20060;-85
2023/12/13 16:41:19;;;;;;;70.20;29.60;;;;;;;;;;6079546;29;20068;-84
2023/12/13 16:44:21;;;;;;;73.38;31.25;;;;;;;;;;6078492;29;20545;-83
2023/12/13 16:47:23;;;;;;;63.08;27.98;;;;;;;;;;6082567;29;20079;-84
2023/12/13 16:50:27;;;;;;;63.60;29.60;;;;;;;;;;6082368;29;20510;-83
2023/12/13 16:53:29;;;;;;;67.00;30.27;;;;;;;;;;6082529;29;20423;-82
2023/12/13 16:56:30;;;;;;;76.72;29.80;;;;;;;;;;6081980;29;20061;-83
2023/12/13 16:59:32;;;;;;;70.80;31.90;;;;;;;;;;6085234;29;20115;-84
2023/12/13 17:02:34;;;;;;;64.68;28.60;;;;;;;;;;6079708;29;20320;-84
2023/12/13 17:05:37;;;;;;;64.85;29.00;;;;;;;;;;6086062;29;20065;-83
2023/12/13 17:08:39;;;;;;;69.07;29.25;;;;;;;;;;6083267;29;20340;-83
2023/12/13 17:11:40;;;;;;;70.82;30.40;;;;;;;;;;6083030;29;20379;-83
2023/12/13 17:14:42;;;;;;;64.43;29.80;;;;;;;;;;6082935;29;20068;-83
2023/12/13 17:17:44;;;;;;;67.40;29.48;;;;;;;;;;6081406;29;20075;-78
2023/12/13 17:20:47;;;;;;;66.13;28.30;;;;;;;;;;6086987;29;20079;-77
2023/12/13 17:23:48;;;;;;;63.57;28.93;;;;;;;;;;6086141;29;20051;-77
2023/12/13 17:26:50;;;;;;;62.45;29.95;;;;;;;;;;6081016;29;20264;-78
2023/12/13 17:29:52;;;;;;;67.85;28.88;;;;;;;;;;6082198;29;20056;-77
2023/12/13 17:32:54;;;;;;;67.82;29.65;;;;;;;;;;6083560;29;20083;-77
2023/12/13 17:35:57;;;;;;;67.18;27.90;;;;;;;;;;6078645;29;20060;-78
2023/12/13 17:38:59;;;;;;;68.22;29.77;;;;;;;;;;6087593;29;20053;-78